sensor_id;sensor_type;location;lat;lon;timestamp;pressure;altitude;pressure_sealevel;temperature;humidity
83424;BME280;73355;49.044;8.686;2023-12-04T00:02:20;99793.31;;;-0.74;64.88
83424;BME280;73355;49.044;8.686;2023-12-04T00:04:46;99782.03;;;-0.79;65.01
83424;BME280;73355;49.044;8.686;2023-12-04T00:07:11;99761.66;;;-0.84;64.80
83424;BME280;73355;49.044;8.686;2023-12-04T00:09:36;99755.53;;;-0.85;65.21
83424;BME280;73355;49.044;8.686;2023-12-04T00:12:02;99748.75;;;-0.82;64.93
83424;BME280;73355;49.044;8.686;2023-12-04T00:14:27;99755.78;;;-0.77;64.88
83424;BME280;73355;49.044;8.686;2023-12-04T00:16:52;99753.56;;;-0.75;65.20
83424;BME280;73355;49.044;8.686;2023-12-04T00:19:18;99763.16;;;-0.74;64.85
83424;BME280;73355;49.044;8.686;2023-12-04T00:21:43;99759.81;;;-0.71;64.38
83424;BME280;73355;49.044;8.686;2023-12-04T00:24:08;99761.06;;;-0.69;64.97
83424;BME280;73355;49.044;8.686;2023-12-04T00:26:34;99762.63;;;-0.68;64.81
83424;BME280;73355;49.044;8.686;2023-12-04T00:28:59;99761.06;;;-0.69;64.78
83424;BME280;73355;49.044;8.686;2023-12-04T00:31:24;99745.69;;;-0.72;64.32
83424;BME280;73355;49.044;8.686;2023-12-04T00:33:50;99744.88;;;-0.72;64.91
83424;BME280;73355;49.044;8.686;2023-12-04T00:36:15;99742.88;;;-0.75;64.93
83424;BME280;73355;49.044;8.686;2023-12-04T00:38:40;99731.28;;;-0.79;64.63
83424;BME280;73355;49.044;8.686;2023-12-04T00:41:06;99730.84;;;-0.81;64.64
83424;BME280;73355;49.044;8.686;2023-12-04T00:43:34;99719.34;;;-0.82;64.24
83424;BME280;73355;49.044;8.686;2023-12-04T00:45:59;99722.34;;;-0.84;64.44
83424;BME280;73355;49.044;8.686;2023-12-04T00:48:24;99724.69;;;-0.82;64.59
83424;BME280;73355;49.044;8.686;2023-12-04T00:50:51;99720.47;;;-0.83;65.21
83424;BME280;73355;49.044;8.686;2023-12-04T00:53:16;99713.34;;;-0.79;65.08
83424;BME280;73355;49.044;8.686;2023-12-04T00:55:41;99719.47;;;-0.78;64.79
83424;BME280;73355;49.044;8.686;2023-12-04T00:58:07;99717.59;;;-0.78;64.81
83424;BME280;73355;49.044;8.686;2023-12-04T01:00:32;99706.91;;;-0.78;64.75
83424;BME280;73355;49.044;8.686;2023-12-04T01:02:57;99711.47;;;-0.78;64.77
83424;BME280;73355;49.044;8.686;2023-12-04T01:05:23;99710.25;;;-0.81;64.84
83424;BME280;73355;49.044;8.686;2023-12-04T01:07:48;99710.56;;;-0.82;64.32
83424;BME280;73355;49.044;8.686;2023-12-04T01:10:13;99711.97;;;-0.85;64.69
83424;BME280;73355;49.044;8.686;2023-12-04T01:12:39;99708.88;;;-0.87;64.65
83424;BME280;73355;49.044;8.686;2023-12-04T01:15:04;99698.72;;;-0.94;64.80
83424;BME280;73355;49.044;8.686;2023-12-04T01:17:30;99693.41;;;-1.02;64.54
83424;BME280;73355;49.044;8.686;2023-12-04T01:19:55;99679.69;;;-1.13;65.09
83424;BME280;73355;49.044;8.686;2023-12-04T01:22:22;99685.53;;;-1.19;64.82
83424;BME280;73355;49.044;8.686;2023-12-04T01:24:47;99697.22;;;-1.24;64.92
83424;BME280;73355;49.044;8.686;2023-12-04T01:27:12;99690.19;;;-1.29;65.02
83424;BME280;73355;49.044;8.686;2023-12-04T01:29:38;99691.44;;;-1.26;65.29
83424;BME280;73355;49.044;8.686;2023-12-04T01:32:03;99681.00;;;-1.19;65.18
83424;BME280;73355;49.044;8.686;2023-12-04T01:34:29;99678.13;;;-1.14;65.33
83424;BME280;73355;49.044;8.686;2023-12-04T01:36:54;99674.34;;;-1.13;65.59
83424;BME280;73355;49.044;8.686;2023-12-04T01:39:19;99672.66;;;-1.17;66.03
83424;BME280;73355;49.044;8.686;2023-12-04T01:41:45;99679.44;;;-1.20;65.82
83424;BME280;73355;49.044;8.686;2023-12-04T01:44:10;99669.66;;;-1.16;65.25
83424;BME280;73355;49.044;8.686;2023-12-04T01:46:36;99669.94;;;-1.09;65.67
83424;BME280;73355;49.044;8.686;2023-12-04T01:49:02;99667.19;;;-1.00;65.41
83424;BME280;73355;49.044;8.686;2023-12-04T01:51:28;99661.63;;;-0.95;65.56
83424;BME280;73355;49.044;8.686;2023-12-04T01:53:55;99654.19;;;-0.90;65.83
83424;BME280;73355;49.044;8.686;2023-12-04T01:56:23;99656.53;;;-0.88;65.96
83424;BME280;73355;49.044;8.686;2023-12-04T01:58:48;99661.88;;;-0.88;65.26
83424;BME280;73355;49.044;8.686;2023-12-04T02:01:14;99660.78;;;-0.87;65.79
83424;BME280;73355;49.044;8.686;2023-12-04T02:03:40;99651.97;;;-0.88;64.97
83424;BME280;73355;49.044;8.686;2023-12-04T02:06:07;99651.31;;;-0.85;65.68
83424;BME280;73355;49.044;8.686;2023-12-04T02:08:32;99662.94;;;-0.80;nan
83424;BME280;73355;49.044;8.686;2023-12-04T02:10:58;99648.78;;;-0.81;65.34
83424;BME280;73355;49.044;8.686;2023-12-04T02:13:24;99641.88;;;-0.82;64.70
83424;BME280;73355;49.044;8.686;2023-12-04T02:15:52;99645.00;;;-0.80;65.38
83424;BME280;73355;49.044;8.686;2023-12-04T02:18:18;99641.56;;;-0.80;64.83
83424;BME280;73355;49.044;8.686;2023-12-04T02:20:44;99641.56;;;-0.80;64.64
83424;BME280;73355;49.044;8.686;2023-12-04T02:23:09;99634.63;;;-0.81;64.53
83424;BME280;73355;49.044;8.686;2023-12-04T02:25:35;99625.84;;;-0.82;64.46
83424;BME280;73355;49.044;8.686;2023-12-04T02:28:03;99629.63;;;-0.83;64.43
83424;BME280;73355;49.044;8.686;2023-12-04T02:30:30;99626.47;;;-0.85;63.97
83424;BME280;73355;49.044;8.686;2023-12-04T02:32:57;99622.72;;;-0.84;64.76
83424;BME280;73355;49.044;8.686;2023-12-04T02:35:26;99622.28;;;-0.86;63.83
83424;BME280;73355;49.044;8.686;2023-12-04T02:37:53;99618.25;;;-0.92;63.68
83424;BME280;73355;49.044;8.686;2023-12-04T02:40:19;99603.63;;;-0.95;63.40
83424;BME280;73355;49.044;8.686;2023-12-04T02:42:45;99597.09;;;-0.97;63.19
83424;BME280;73355;49.044;8.686;2023-12-04T02:45:10;99595.84;;;-1.00;63.39
83424;BME280;73355;49.044;8.686;2023-12-04T02:47:36;99593.16;;;-1.00;63.96
83424;BME280;73355;49.044;8.686;2023-12-04T02:50:01;99592.06;;;-0.99;64.74
83424;BME280;73355;49.044;8.686;2023-12-04T02:52:27;99586.81;;;-0.95;64.43
83424;BME280;73355;49.044;8.686;2023-12-04T02:54:52;99573.47;;;-0.95;64.68
83424;BME280;73355;49.044;8.686;2023-12-04T02:57:17;99571.91;;;-0.96;64.46
83424;BME280;73355;49.044;8.686;2023-12-04T02:59:42;99571.47;;;-0.98;65.20
83424;BME280;73355;49.044;8.686;2023-12-04T03:02:08;99571.78;;;-1.00;65.14
83424;BME280;73355;49.044;8.686;2023-12-04T03:04:34;99569.13;;;-1.00;64.71
83424;BME280;73355;49.044;8.686;2023-12-04T03:07:00;99557.53;;;-1.04;65.16
83424;BME280;73355;49.044;8.686;2023-12-04T03:09:25;99569.22;;;-1.08;65.52
83424;BME280;73355;49.044;8.686;2023-12-04T03:11:50;99554.63;;;-1.11;65.09
83424;BME280;73355;49.044;8.686;2023-12-04T03:14:15;99548.50;;;-1.11;65.57
83424;BME280;73355;49.044;8.686;2023-12-04T03:16:41;99556.19;;;-1.10;64.77
83424;BME280;73355;49.044;8.686;2023-12-04T03:19:06;99545.19;;;-1.08;65.09
83424;BME280;73355;49.044;8.686;2023-12-04T03:21:31;99536.81;;;-1.07;65.55
83424;BME280;73355;49.044;8.686;2023-12-04T03:23:57;99540.75;;;-1.04;65.67
83424;BME280;73355;49.044;8.686;2023-12-04T03:26:22;99535.06;;;-1.03;65.37
83424;BME280;73355;49.044;8.686;2023-12-04T03:28:48;99539.97;;;-1.05;64.85
83424;BME280;73355;49.044;8.686;2023-12-04T03:31:13;99528.50;;;-1.05;65.17
83424;BME280;73355;49.044;8.686;2023-12-04T03:33:39;99517.03;;;-1.06;64.33
83424;BME280;73355;49.044;8.686;2023-12-04T03:36:04;99528.59;;;-1.02;64.85
83424;BME280;73355;49.044;8.686;2023-12-04T03:38:30;99508.16;;;-0.98;64.39
83424;BME280;73355;49.044;8.686;2023-12-04T03:40:55;99507.47;;;-0.95;64.46
83424;BME280;73355;49.044;8.686;2023-12-04T03:43:20;99510.16;;;-0.95;64.24
83424;BME280;73355;49.044;8.686;2023-12-04T03:45:46;99509.03;;;-0.94;64.55
83424;BME280;73355;49.044;8.686;2023-12-04T03:48:11;99519.25;;;-0.96;64.22
83424;BME280;73355;49.044;8.686;2023-12-04T03:50:36;99506.91;;;-1.00;64.03
83424;BME280;73355;49.044;8.686;2023-12-04T03:53:02;99518.38;;;-1.00;64.04
83424;BME280;73355;49.044;8.686;2023-12-04T03:55:27;99509.56;;;-1.00;63.69
83424;BME280;73355;49.044;8.686;2023-12-04T03:57:56;99514.47;;;-1.02;63.89
83424;BME280;73355;49.044;8.686;2023-12-04T04:00:21;99520.03;;;-1.07;63.70
83424;BME280;73355;49.044;8.686;2023-12-04T04:02:48;99519.91;;;-1.11;63.07
83424;BME280;73355;49.044;8.686;2023-12-04T04:05:13;99520.91;;;-1.15;63.22
83424;BME280;73355;49.044;8.686;2023-12-04T04:07:39;99519.97;;;-1.19;63.04
83424;BME280;73355;49.044;8.686;2023-12-04T04:10:04;99524.31;;;-1.27;63.59
83424;BME280;73355;49.044;8.686;2023-12-04T04:12:30;99516.84;;;-1.34;63.61
83424;BME280;73355;49.044;8.686;2023-12-04T04:14:56;99528.16;;;-1.37;63.82
83424;BME280;73355;49.044;8.686;2023-12-04T04:17:22;99524.59;;;-1.41;63.46
83424;BME280;73355;49.044;8.686;2023-12-04T04:19:50;99516.91;;;-1.42;63.72
83424;BME280;73355;49.044;8.686;2023-12-04T04:22:16;99513.50;;;-1.43;63.66
83424;BME280;73355;49.044;8.686;2023-12-04T04:24:41;99516.16;;;-1.43;64.83
83424;BME280;73355;49.044;8.686;2023-12-04T04:27:06;99514.38;;;-1.39;64.32
83424;BME280;73355;49.044;8.686;2023-12-04T04:29:34;99514.38;;;-1.39;64.24
83424;BME280;73355;49.044;8.686;2023-12-04T04:31:59;99513.72;;;-1.36;64.37
83424;BME280;73355;49.044;8.686;2023-12-04T04:34:25;99521.41;;;-1.34;64.11
83424;BME280;73355;49.044;8.686;2023-12-04T04:36:50;99513.38;;;-1.34;63.86
83424;BME280;73355;49.044;8.686;2023-12-04T04:39:15;99511.97;;;-1.32;63.79
83424;BME280;73355;49.044;8.686;2023-12-04T04:41:41;99508.94;;;-1.30;64.19
83424;BME280;73355;49.044;8.686;2023-12-04T04:44:06;99492.28;;;-1.27;63.58
83424;BME280;73355;49.044;8.686;2023-12-04T04:46:31;99495.38;;;-1.25;64.11
83424;BME280;73355;49.044;8.686;2023-12-04T04:48:57;99493.16;;;-1.23;64.06
83424;BME280;73355;49.044;8.686;2023-12-04T04:51:22;99481.38;;;-1.22;64.03
83424;BME280;73355;49.044;8.686;2023-12-04T04:53:49;99478.03;;;-1.19;63.78
83424;BME280;73355;49.044;8.686;2023-12-04T04:56:14;99472.47;;;-1.14;65.06
83424;BME280;73355;49.044;8.686;2023-12-04T04:58:40;99469.94;;;-1.10;63.95
83424;BME280;73355;49.044;8.686;2023-12-04T05:01:05;99468.38;;;-1.11;64.53
83424;BME280;73355;49.044;8.686;2023-12-04T05:03:31;99471.38;;;-1.13;63.79
83424;BME280;73355;49.044;8.686;2023-12-04T05:05:56;99464.94;;;-1.12;63.92
83424;BME280;73355;49.044;8.686;2023-12-04T05:08:21;99469.81;;;-1.14;63.17
83424;BME280;73355;49.044;8.686;2023-12-04T05:10:47;99466.72;;;-1.16;63.92
83424;BME280;73355;49.044;8.686;2023-12-04T05:13:12;99465.59;;;-1.15;63.79
83424;BME280;73355;49.044;8.686;2023-12-04T05:15:37;99465.72;;;-1.11;63.62
83424;BME280;73355;49.044;8.686;2023-12-04T05:18:02;99461.25;;;-1.07;63.66
83424;BME280;73355;49.044;8.686;2023-12-04T05:20:28;99463.59;;;-1.06;63.93
83424;BME280;73355;49.044;8.686;2023-12-04T05:22:53;99462.81;;;-1.06;63.23
83424;BME280;73355;49.044;8.686;2023-12-04T05:25:18;99472.63;;;-1.10;63.30
83424;BME280;73355;49.044;8.686;2023-12-04T05:27:45;99472.84;;;-1.15;63.33
83424;BME280;73355;49.044;8.686;2023-12-04T05:30:11;99468.81;;;-1.21;63.79
83424;BME280;73355;49.044;8.686;2023-12-04T05:32:36;99469.59;;;-1.21;63.90
83424;BME280;73355;49.044;8.686;2023-12-04T05:35:01;99469.25;;;-1.19;63.94
83424;BME280;73355;49.044;8.686;2023-12-04T05:37:27;99478.59;;;-1.13;64.11
83424;BME280;73355;49.044;8.686;2023-12-04T05:39:53;99483.88;;;-1.05;63.88
83424;BME280;73355;49.044;8.686;2023-12-04T05:42:18;99492.69;;;-0.92;64.28
83424;BME280;73355;49.044;8.686;2023-12-04T05:44:43;99487.22;;;-0.84;63.70
83424;BME280;73355;49.044;8.686;2023-12-04T05:47:09;99482.91;;;-0.76;64.04
83424;BME280;73355;49.044;8.686;2023-12-04T05:49:34;99480.88;;;-0.67;64.40
83424;BME280;73355;49.044;8.686;2023-12-04T05:52:00;99481.44;;;-0.61;63.56
83424;BME280;73355;49.044;8.686;2023-12-04T05:54:25;99475.09;;;-0.57;63.72
83424;BME280;73355;49.044;8.686;2023-12-04T05:56:50;99475.53;;;-0.55;63.05
83424;BME280;73355;49.044;8.686;2023-12-04T05:59:16;99472.09;;;-0.55;62.67
83424;BME280;73355;49.044;8.686;2023-12-04T06:01:41;99473.53;;;-0.58;63.11
83424;BME280;73355;49.044;8.686;2023-12-04T06:04:06;99477.00;;;-0.57;63.31
83424;BME280;73355;49.044;8.686;2023-12-04T06:06:31;99474.44;;;-0.54;63.75
83424;BME280;73355;49.044;8.686;2023-12-04T06:08:57;99478.66;;;-0.53;63.92
83424;BME280;73355;49.044;8.686;2023-12-04T06:11:22;99470.28;;;-0.51;63.20
83424;BME280;73355;49.044;8.686;2023-12-04T06:13:48;99469.63;;;-0.48;63.26
83424;BME280;73355;49.044;8.686;2023-12-04T06:16:13;99463.28;;;-0.44;63.59
83424;BME280;73355;49.044;8.686;2023-12-04T06:18:38;99458.03;;;-0.40;63.23
83424;BME280;73355;49.044;8.686;2023-12-04T06:21:04;99448.47;;;-0.41;63.41
83424;BME280;73355;49.044;8.686;2023-12-04T06:23:29;99437.00;;;-0.42;63.42
83424;BME280;73355;49.044;8.686;2023-12-04T06:25:55;99442.34;;;-0.42;63.50
83424;BME280;73355;49.044;8.686;2023-12-04T06:28:21;99427.06;;;-0.41;64.07
83424;BME280;73355;49.044;8.686;2023-12-04T06:30:46;99408.34;;;-0.41;63.29
83424;BME280;73355;49.044;8.686;2023-12-04T06:33:12;99412.38;;;-0.47;64.64
83424;BME280;73355;49.044;8.686;2023-12-04T06:35:40;99411.59;;;-0.48;64.65
83424;BME280;73355;49.044;8.686;2023-12-04T06:38:06;99410.91;;;-0.45;64.63
83424;BME280;73355;49.044;8.686;2023-12-04T06:40:32;99411.03;;;-0.41;64.65
83424;BME280;73355;49.044;8.686;2023-12-04T06:42:58;99414.13;;;-0.39;64.24
83424;BME280;73355;49.044;8.686;2023-12-04T06:45:23;99411.13;;;-0.37;65.16
83424;BME280;73355;49.044;8.686;2023-12-04T06:47:50;99408.78;;;-0.39;64.37
83424;BME280;73355;49.044;8.686;2023-12-04T06:50:16;99405.69;;;-0.41;64.41
83424;BME280;73355;49.044;8.686;2023-12-04T06:52:41;99404.91;;;-0.42;64.46
83424;BME280;73355;49.044;8.686;2023-12-04T06:55:07;99390.84;;;-0.38;64.76
83424;BME280;73355;49.044;8.686;2023-12-04T06:57:33;99389.41;;;-0.36;64.78
83424;BME280;73355;49.044;8.686;2023-12-04T06:59:58;99383.72;;;-0.34;63.98
83424;BME280;73355;49.044;8.686;2023-12-04T07:02:24;99380.28;;;-0.35;64.74
83424;BME280;73355;49.044;8.686;2023-12-04T07:04:49;99374.22;;;-0.32;64.09
83424;BME280;73355;49.044;8.686;2023-12-04T07:07:14;99368.88;;;-0.32;64.44
83424;BME280;73355;49.044;8.686;2023-12-04T07:09:39;99364.94;;;-0.22;64.42
83424;BME280;73355;49.044;8.686;2023-12-04T07:12:05;99357.63;;;-0.25;64.85
83424;BME280;73355;49.044;8.686;2023-12-04T07:14:31;99349.84;;;-0.30;65.18
83424;BME280;73355;49.044;8.686;2023-12-04T07:16:57;99344.50;;;-0.30;64.46
83424;BME280;73355;49.044;8.686;2023-12-04T07:19:22;99346.47;;;-0.27;65.30
83424;BME280;73355;49.044;8.686;2023-12-04T07:22:13;99333.53;;;-0.25;64.87
83424;BME280;73355;49.044;8.686;2023-12-04T07:24:39;99335.88;;;-0.24;65.16
83424;BME280;73355;49.044;8.686;2023-12-04T07:27:04;99329.84;;;-0.21;64.30
83424;BME280;73355;49.044;8.686;2023-12-04T07:29:30;99330.28;;;-0.19;64.79
83424;BME280;73355;49.044;8.686;2023-12-04T07:32:07;99320.47;;;-0.15;64.34
83424;BME280;73355;49.044;8.686;2023-12-04T07:34:32;99323.66;;;-0.09;64.25
83424;BME280;73355;49.044;8.686;2023-12-04T07:36:58;99310.38;;;-0.06;64.58
83424;BME280;73355;49.044;8.686;2023-12-04T07:39:23;99317.66;;;-0.06;64.84
83424;BME280;73355;49.044;8.686;2023-12-04T07:41:49;99333.91;;;-0.11;63.92
83424;BME280;73355;49.044;8.686;2023-12-04T07:44:15;99342.31;;;-0.13;63.88
83424;BME280;73355;49.044;8.686;2023-12-04T07:46:46;99365.16;;;-0.15;63.75
83424;BME280;73355;49.044;8.686;2023-12-04T07:49:12;99381.09;;;-0.19;63.36
83424;BME280;73355;49.044;8.686;2023-12-04T07:51:37;99376.00;;;-0.24;63.19
83424;BME280;73355;49.044;8.686;2023-12-04T07:54:02;99380.03;;;-0.30;63.38
83424;BME280;73355;49.044;8.686;2023-12-04T07:56:28;99376.81;;;-0.35;62.65
83424;BME280;73355;49.044;8.686;2023-12-04T07:58:53;99378.16;;;-0.42;63.01
83424;BME280;73355;49.044;8.686;2023-12-04T08:01:24;99370.81;;;-0.45;62.22
83424;BME280;73355;49.044;8.686;2023-12-04T08:03:50;99352.78;;;-0.48;62.58
83424;BME280;73355;49.044;8.686;2023-12-04T08:06:15;99356.66;;;-0.45;63.07
83424;BME280;73355;49.044;8.686;2023-12-04T08:08:43;99326.69;;;-0.38;63.43
83424;BME280;73355;49.044;8.686;2023-12-04T08:11:12;99323.44;;;-0.32;64.18
83424;BME280;73355;49.044;8.686;2023-12-04T08:13:46;99299.13;;;-0.27;64.21
83424;BME280;73355;49.044;8.686;2023-12-04T08:16:14;99304.56;;;-0.23;63.63
83424;BME280;73355;49.044;8.686;2023-12-04T08:18:40;99287.06;;;-0.21;64.33
83424;BME280;73355;49.044;8.686;2023-12-04T08:21:06;99295.19;;;-0.17;63.97
83424;BME280;73355;49.044;8.686;2023-12-04T08:23:31;99282.69;;;-0.13;63.72
83424;BME280;73355;49.044;8.686;2023-12-04T08:26:09;99285.53;;;-0.06;63.45
83424;BME280;73355;49.044;8.686;2023-12-04T08:28:34;99284.84;;;-0.03;63.85
83424;BME280;73355;49.044;8.686;2023-12-04T08:31:09;99286.06;;;-0.01;63.80
83424;BME280;73355;49.044;8.686;2023-12-04T08:33:35;99284.34;;;0.07;63.22
83424;BME280;73355;49.044;8.686;2023-12-04T08:36:01;99280.63;;;0.12;62.63
83424;BME280;73355;49.044;8.686;2023-12-04T08:38:33;99270.09;;;0.19;62.88
83424;BME280;73355;49.044;8.686;2023-12-04T08:40:58;99276.06;;;0.28;63.56
83424;BME280;73355;49.044;8.686;2023-12-04T08:43:23;99266.75;;;0.37;63.52
83424;BME280;73355;49.044;8.686;2023-12-04T08:45:49;99263.78;;;0.43;62.97
83424;BME280;73355;49.044;8.686;2023-12-04T08:48:14;99284.53;;;0.46;63.71
83424;BME280;73355;49.044;8.686;2023-12-04T08:50:40;99289.97;;;0.49;63.35
83424;BME280;73355;49.044;8.686;2023-12-04T08:53:12;99290.03;;;0.53;62.86
83424;BME280;73355;49.044;8.686;2023-12-04T08:55:37;99303.16;;;0.58;62.80
83424;BME280;73355;49.044;8.686;2023-12-04T08:58:03;99306.34;;;0.63;62.60
83424;BME280;73355;49.044;8.686;2023-12-04T09:00:29;99310.75;;;0.71;62.56
83424;BME280;73355;49.044;8.686;2023-12-04T09:02:54;99304.34;;;0.76;62.27
83424;BME280;73355;49.044;8.686;2023-12-04T09:05:20;99302.38;;;0.73;62.09
83424;BME280;73355;49.044;8.686;2023-12-04T09:07:51;99298.16;;;0.72;61.61
83424;BME280;73355;49.044;8.686;2023-12-04T09:10:16;99293.13;;;0.70;61.19
83424;BME280;73355;49.044;8.686;2023-12-04T09:12:42;99280.59;;;0.74;61.97
83424;BME280;73355;49.044;8.686;2023-12-04T09:15:07;99283.03;;;0.79;62.18
83424;BME280;73355;49.044;8.686;2023-12-04T09:17:32;99296.03;;;0.81;62.06
83424;BME280;73355;49.044;8.686;2023-12-04T09:19:58;99303.81;;;0.86;62.54
83424;BME280;73355;49.044;8.686;2023-12-04T09:22:29;99294.31;;;0.89;62.31
83424;BME280;73355;49.044;8.686;2023-12-04T09:24:55;99295.78;;;0.86;61.67
83424;BME280;73355;49.044;8.686;2023-12-04T09:27:20;99297.34;;;0.87;61.29
83424;BME280;73355;49.044;8.686;2023-12-04T09:29:46;99290.50;;;0.90;61.93
83424;BME280;73355;49.044;8.686;2023-12-04T09:32:11;99299.34;;;0.90;62.35
83424;BME280;73355;49.044;8.686;2023-12-04T09:34:36;99293.25;;;0.93;61.71
83424;BME280;73355;49.044;8.686;2023-12-04T09:37:08;99302.53;;;0.96;62.12
83424;BME280;73355;49.044;8.686;2023-12-04T09:39:34;99317.81;;;0.95;61.39
83424;BME280;73355;49.044;8.686;2023-12-04T09:41:59;99311.16;;;0.89;61.75
83424;BME280;73355;49.044;8.686;2023-12-04T09:44:28;99314.97;;;0.88;62.02
83424;BME280;73355;49.044;8.686;2023-12-04T09:46:53;99307.66;;;0.85;61.50
83424;BME280;73355;49.044;8.686;2023-12-04T09:49:39;99314.81;;;0.81;61.62
83424;BME280;73355;49.044;8.686;2023-12-04T09:52:05;99300.28;;;0.82;61.61
83424;BME280;73355;49.044;8.686;2023-12-04T09:54:32;99313.34;;;0.83;61.36
83424;BME280;73355;49.044;8.686;2023-12-04T09:56:58;99273.16;;;0.83;61.74
83424;BME280;73355;49.044;8.686;2023-12-04T09:59:24;99259.75;;;0.83;62.17
83424;BME280;73355;49.044;8.686;2023-12-04T10:02:05;99271.53;;;0.79;62.15
83424;BME280;73355;49.044;8.686;2023-12-04T10:04:31;99250.50;;;0.81;61.82
83424;BME280;73355;49.044;8.686;2023-12-04T10:06:57;99246.88;;;0.89;62.28
83424;BME280;73355;49.044;8.686;2023-12-04T10:09:23;99273.44;;;0.98;62.48
83424;BME280;73355;49.044;8.686;2023-12-04T10:11:50;99289.19;;;0.99;62.56
83424;BME280;73355;49.044;8.686;2023-12-04T10:14:20;99283.06;;;0.99;62.21
83424;BME280;73355;49.044;8.686;2023-12-04T10:16:46;99290.59;;;0.93;61.46
83424;BME280;73355;49.044;8.686;2023-12-04T10:19:17;99299.41;;;0.94;62.15
83424;BME280;73355;49.044;8.686;2023-12-04T10:21:46;99292.91;;;0.95;62.32
83424;BME280;73355;49.044;8.686;2023-12-04T10:24:13;99292.91;;;0.95;62.37
83424;BME280;73355;49.044;8.686;2023-12-04T10:26:49;99289.47;;;0.94;61.79
83424;BME280;73355;49.044;8.686;2023-12-04T10:29:16;99282.28;;;0.98;62.23
83424;BME280;73355;49.044;8.686;2023-12-04T10:31:41;99265.63;;;1.08;62.57
83424;BME280;73355;49.044;8.686;2023-12-04T10:34:06;99258.97;;;1.18;62.23
83424;BME280;73355;49.044;8.686;2023-12-04T10:36:35;99248.78;;;1.27;62.71
83424;BME280;73355;49.044;8.686;2023-12-04T10:39:07;99238.22;;;1.34;62.27
83424;BME280;73355;49.044;8.686;2023-12-04T10:41:32;99232.50;;;1.36;62.25
83424;BME280;73355;49.044;8.686;2023-12-04T10:43:58;99230.19;;;1.34;62.09
83424;BME280;73355;49.044;8.686;2023-12-04T10:46:26;99218.34;;;1.35;62.53
83424;BME280;73355;49.044;8.686;2023-12-04T10:48:52;99215.00;;;1.42;62.75
83424;BME280;73355;49.044;8.686;2023-12-04T10:51:28;99205.56;;;1.48;62.93
83424;BME280;73355;49.044;8.686;2023-12-04T10:53:54;99197.28;;;1.56;63.05
83424;BME280;73355;49.044;8.686;2023-12-04T10:56:26;99200.47;;;1.65;63.26
83424;BME280;73355;49.044;8.686;2023-12-04T10:58:53;99199.84;;;1.72;63.44
83424;BME280;73355;49.044;8.686;2023-12-04T11:01:19;99191.13;;;1.79;62.92
83424;BME280;73355;49.044;8.686;2023-12-04T11:06:21;99188.09;;;1.80;62.60
83424;BME280;73355;49.044;8.686;2023-12-04T11:08:48;99191.56;;;1.81;62.53
83424;BME280;73355;49.044;8.686;2023-12-04T11:11:26;99194.66;;;1.83;62.60
83424;BME280;73355;49.044;8.686;2023-12-04T11:14:02;99189.00;;;1.88;62.67
83424;BME280;73355;49.044;8.686;2023-12-04T11:16:38;99194.44;;;1.91;62.96
83424;BME280;73355;49.044;8.686;2023-12-04T11:19:20;99189.06;;;1.91;63.23
83424;BME280;73355;49.044;8.686;2023-12-04T11:21:53;99191.00;;;1.94;62.77
83424;BME280;73355;49.044;8.686;2023-12-04T11:24:18;99177.25;;;1.96;62.99
83424;BME280;73355;49.044;8.686;2023-12-04T11:26:44;99177.69;;;1.98;63.14
83424;BME280;73355;49.044;8.686;2023-12-04T11:29:12;99165.50;;;2.04;63.33
83424;BME280;73355;49.044;8.686;2023-12-04T11:31:38;99161.31;;;2.06;63.55
83424;BME280;73355;49.044;8.686;2023-12-04T11:34:16;99152.13;;;2.07;63.61
83424;BME280;73355;49.044;8.686;2023-12-04T11:36:41;99136.78;;;2.08;63.82
83424;BME280;73355;49.044;8.686;2023-12-04T11:39:10;99135.25;;;2.07;63.88
83424;BME280;73355;49.044;8.686;2023-12-04T11:41:36;99121.44;;;2.05;63.93
83424;BME280;73355;49.044;8.686;2023-12-04T11:44:01;99111.09;;;2.07;64.68
83424;BME280;73355;49.044;8.686;2023-12-04T11:46:54;99108.03;;;2.08;65.24
83424;BME280;73355;49.044;8.686;2023-12-04T11:49:28;99097.31;;;2.08;65.08
83424;BME280;73355;49.044;8.686;2023-12-04T11:51:54;99091.59;;;2.10;65.52
83424;BME280;73355;49.044;8.686;2023-12-04T11:54:55;99082.75;;;2.10;65.85
83424;BME280;73355;49.044;8.686;2023-12-04T11:57:23;99074.31;;;2.11;66.21
83424;BME280;73355;49.044;8.686;2023-12-04T11:59:49;99078.94;;;2.11;66.07
83424;BME280;73355;49.044;8.686;2023-12-04T12:02:34;99071.28;;;2.13;66.66
83424;BME280;73355;49.044;8.686;2023-12-04T12:05:00;99076.72;;;2.16;66.86
83424;BME280;73355;49.044;8.686;2023-12-04T12:07:26;99069.84;;;2.19;66.92
83424;BME280;73355;49.044;8.686;2023-12-04T12:09:51;99065.28;;;2.23;67.07
83424;BME280;73355;49.044;8.686;2023-12-04T12:12:17;99062.25;;;2.24;67.18
83424;BME280;73355;49.044;8.686;2023-12-04T12:14:51;99047.69;;;2.25;67.17
83424;BME280;73355;49.044;8.686;2023-12-04T12:17:16;99048.88;;;2.28;67.52
83424;BME280;73355;49.044;8.686;2023-12-04T12:19:42;99044.25;;;2.28;67.25
83424;BME280;73355;49.044;8.686;2023-12-04T12:22:07;99036.16;;;2.25;67.31
83424;BME280;73355;49.044;8.686;2023-12-04T12:24:32;99024.22;;;2.22;67.50
83424;BME280;73355;49.044;8.686;2023-12-04T12:26:58;99015.09;;;2.27;67.34
83424;BME280;73355;49.044;8.686;2023-12-04T12:29:29;99013.66;;;2.33;67.74
83424;BME280;73355;49.044;8.686;2023-12-04T12:31:54;99004.84;;;2.36;68.00
83424;BME280;73355;49.044;8.686;2023-12-04T12:34:20;99003.72;;;2.37;67.75
83424;BME280;73355;49.044;8.686;2023-12-04T12:36:46;98996.38;;;2.34;67.98
83424;BME280;73355;49.044;8.686;2023-12-04T12:39:12;99002.50;;;2.31;68.32
83424;BME280;73355;49.044;8.686;2023-12-04T12:41:53;98990.97;;;2.30;68.31
83424;BME280;73355;49.044;8.686;2023-12-04T12:44:18;98974.84;;;2.30;68.12
83424;BME280;73355;49.044;8.686;2023-12-04T12:46:48;98979.09;;;2.31;68.30
83424;BME280;73355;49.044;8.686;2023-12-04T12:49:17;98978.00;;;2.36;68.12
83424;BME280;73355;49.044;8.686;2023-12-04T12:51:42;98980.25;;;2.34;68.17
83424;BME280;73355;49.044;8.686;2023-12-04T12:54:15;98986.34;;;2.27;67.62
83424;BME280;73355;49.044;8.686;2023-12-04T12:56:41;98970.50;;;2.19;67.46
83424;BME280;73355;49.044;8.686;2023-12-04T12:59:06;98968.50;;;2.12;68.05
83424;BME280;73355;49.044;8.686;2023-12-04T13:01:32;98963.88;;;2.09;68.55
83424;BME280;73355;49.044;8.686;2023-12-04T13:03:57;98960.84;;;2.11;68.38
83424;BME280;73355;49.044;8.686;2023-12-04T13:06:23;98950.13;;;2.14;68.95